GBB weather

Gabala International Airport
Gabala, Qabala, Azerbaijan

Public forecast

Using degrees Celsius for public forecast. Weather courtesy of forecast.io.

METAR (pilot weather report)

Retrieved 2019/04/21 10:00 UTC (17 minutes ago):

UBBQ 211000Z 17002KT 9999 BKN026 OVCV060 09/03 Q1020 R34/////// NOSIG RMK MT OBSC

TAF (pilot weather forecast)

Retrieved 2019/04/21 06:00 UTC (4 hours ago):

TAF UBBQ 210513Z 2106/2206 VRB04KT 9000 SCT010 OVC025 TX08/2111Z TN02/2203Z TEMPO 2106/2118 14008KT -RA BKN008 OVC015 TEMPO 2118/2204 3000 -RA BR BKN006